createdAt,value
2022-12-03T00:00:59.894Z,55.40
2022-12-03T00:03:29.419Z,57.70
2022-12-03T00:05:57.602Z,58.20
2022-12-03T00:08:25.562Z,62.30
2022-12-03T00:10:53.479Z,63.70
2022-12-03T00:13:21.552Z,60.50
2022-12-03T00:15:49.576Z,61.40
2022-12-03T00:18:17.482Z,60.50
2022-12-03T00:20:45.455Z,60.40
2022-12-03T00:23:13.367Z,60.40
2022-12-03T00:25:41.312Z,62.20
2022-12-03T00:28:09.255Z,58.50
2022-12-03T00:30:37.230Z,71.00
2022-12-03T00:33:05.182Z,57.90
2022-12-03T00:35:33.124Z,56.70
2022-12-03T00:38:01.037Z,56.30
2022-12-03T00:40:28.943Z,57.20
2022-12-03T00:42:56.837Z,67.50
2022-12-03T00:45:24.842Z,62.90
2022-12-03T00:47:52.880Z,66.20
2022-12-03T00:50:20.842Z,58.80
2022-12-03T00:52:49.942Z,54.60
2022-12-03T00:55:18.150Z,61.70
2022-12-03T00:57:46.064Z,53.70
2022-12-03T01:00:14.622Z,52.60
2022-12-03T01:02:42.664Z,49.30
2022-12-03T01:05:11.626Z,52.50
2022-12-03T01:07:39.622Z,51.40
2022-12-03T01:10:08.085Z,49.00
2022-12-03T01:12:36.032Z,47.30
2022-12-03T01:15:05.134Z,48.10
2022-12-03T01:17:33.205Z,48.00
2022-12-03T01:20:02.696Z,54.80
2022-12-03T01:22:30.690Z,53.10
2022-12-03T01:24:58.626Z,47.40
2022-12-03T01:27:26.591Z,51.50
2022-12-03T01:29:54.594Z,50.80
2022-12-03T01:32:22.561Z,48.20
2022-12-03T01:34:53.301Z,50.20
2022-12-03T01:37:23.923Z,52.20
2022-12-03T01:39:52.268Z,51.70
2022-12-03T01:42:30.263Z,50.00
2022-12-03T01:44:59.897Z,49.20
2022-12-03T01:47:31.409Z,47.60
2022-12-03T01:50:13.892Z,51.50
2022-12-03T01:52:42.533Z,48.10
2022-12-03T01:55:17.385Z,53.10
2022-12-03T01:57:48.759Z,51.70
2022-12-03T02:00:20.661Z,50.90
2022-12-03T02:02:55.120Z,49.30
2022-12-03T02:05:28.888Z,52.30
2022-12-03T02:07:57.559Z,58.50
2022-12-03T02:10:33.339Z,58.80
2022-12-03T02:13:04.929Z,53.60
2022-12-03T02:15:33.304Z,60.00
2022-12-03T02:18:01.775Z,55.70
2022-12-03T02:20:33.228Z,53.10
2022-12-03T02:23:13.266Z,57.50
2022-12-03T02:25:41.284Z,61.90
2022-12-03T02:28:10.066Z,62.00
2022-12-03T02:30:38.158Z,58.50
2022-12-03T02:33:06.224Z,59.30
2022-12-03T02:35:36.313Z,57.90
2022-12-03T02:38:11.191Z,56.20
2022-12-03T02:40:39.975Z,56.30
2022-12-03T02:43:08.067Z,61.10
2022-12-03T02:45:43.534Z,63.10
2022-12-03T02:48:23.394Z,60.20
2022-12-03T02:50:57.646Z,60.60
2022-12-03T02:53:30.875Z,59.50
2022-12-03T02:56:02.135Z,62.90
2022-12-03T02:58:32.825Z,60.00
2022-12-03T03:02:11.655Z,65.30
2022-12-03T03:04:41.330Z,60.90
2022-12-03T03:07:09.744Z,64.00
2022-12-03T03:09:37.872Z,59.80
2022-12-03T03:12:06.259Z,61.30
2022-12-03T03:14:34.635Z,70.70
2022-12-03T03:17:03.895Z,61.10
2022-12-03T03:19:33.016Z,63.20
2022-12-03T03:22:01.022Z,59.20
2022-12-03T03:24:29.062Z,57.50
2022-12-03T03:26:57.034Z,50.40
2022-12-03T03:29:25.099Z,50.80
2022-12-03T03:31:53.353Z,53.50
2022-12-03T03:34:21.449Z,51.30
2022-12-03T03:36:49.527Z,52.10
2022-12-03T03:39:17.483Z,53.30
2022-12-03T03:41:46.952Z,51.70
2022-12-03T03:44:14.982Z,52.70
2022-12-03T03:46:43.701Z,47.10
2022-12-03T03:49:12.892Z,48.70
2022-12-03T03:51:41.125Z,46.80
2022-12-03T03:54:09.502Z,51.20
2022-12-03T03:56:37.462Z,44.60
2022-12-03T03:59:05.761Z,49.00
2022-12-03T04:01:34.195Z,47.10
2022-12-03T04:04:02.498Z,43.80
2022-12-03T04:06:30.520Z,44.50
2022-12-03T04:08:58.510Z,39.60
2022-12-03T04:11:44.941Z,38.80
2022-12-03T04:14:12.856Z,38.90
2022-12-03T04:16:40.856Z,36.10
2022-12-03T04:19:08.834Z,37.50
2022-12-03T04:21:55.365Z,41.00
2022-12-03T04:24:25.230Z,44.20
2022-12-03T04:27:12.333Z,38.10
2022-12-03T04:29:40.203Z,39.50
2022-12-03T04:32:26.541Z,43.20
2022-12-03T04:35:13.269Z,45.60
2022-12-03T04:37:41.242Z,43.10
2022-12-03T04:40:29.699Z,44.60
2022-12-03T04:42:57.629Z,45.10
2022-12-03T04:45:25.544Z,45.30
2022-12-03T04:47:53.453Z,39.80
2022-12-03T04:50:21.361Z,44.00
2022-12-03T04:52:49.260Z,41.60
2022-12-03T04:55:17.118Z,43.80
2022-12-03T04:57:45.000Z,45.00
2022-12-03T05:00:13.871Z,46.90
2022-12-03T05:02:41.849Z,42.50
2022-12-03T05:05:11.257Z,47.60
2022-12-03T05:07:39.433Z,43.40
2022-12-03T05:10:07.883Z,49.70
2022-12-03T05:12:36.481Z,48.00
2022-12-03T05:15:06.020Z,42.30
2022-12-03T05:17:34.114Z,52.00
2022-12-03T05:20:20.798Z,50.30
2022-12-03T05:22:48.782Z,43.80
2022-12-03T05:25:16.684Z,45.80
2022-12-03T05:27:44.674Z,47.70
2022-12-03T05:30:12.915Z,51.40
2022-12-03T05:32:40.843Z,53.20
2022-12-03T05:35:10.340Z,59.40
2022-12-03T05:37:38.330Z,53.40
2022-12-03T05:40:07.205Z,61.10
2022-12-03T05:42:53.835Z,55.40
2022-12-03T05:45:48.765Z,62.70
2022-12-03T05:48:17.811Z,58.80
2022-12-03T05:50:46.901Z,55.30
2022-12-03T05:53:16.384Z,54.60
2022-12-03T05:55:44.380Z,52.30
2022-12-03T05:58:12.398Z,50.10
2022-12-03T06:00:42.783Z,52.60
2022-12-03T06:03:11.210Z,51.60
2022-12-03T06:05:39.424Z,50.80
2022-12-03T06:08:07.456Z,55.50
2022-12-03T06:10:35.517Z,61.20
2022-12-03T06:13:03.650Z,53.80
2022-12-03T06:15:31.741Z,57.00
2022-12-03T06:17:59.691Z,53.70
2022-12-03T06:20:27.647Z,63.60
2022-12-03T06:22:55.574Z,54.30
2022-12-03T06:25:23.470Z,58.80
2022-12-03T06:27:51.351Z,60.00
2022-12-03T06:30:19.481Z,53.50
2022-12-03T06:32:47.509Z,53.70
2022-12-03T06:35:15.538Z,61.10
2022-12-03T06:37:43.592Z,64.00
2022-12-03T06:40:12.253Z,63.60
2022-12-03T06:42:40.191Z,59.80
2022-12-03T06:45:08.699Z,65.20
2022-12-03T06:47:37.094Z,63.80
2022-12-03T06:50:07.467Z,71.30
2022-12-03T06:52:36.259Z,69.60
2022-12-03T06:55:04.527Z,94.00
2022-12-03T06:57:32.637Z,95.20
2022-12-03T07:00:00.755Z,72.60
2022-12-03T07:02:28.792Z,115.40
2022-12-03T07:04:57.023Z,119.90
2022-12-03T07:07:26.240Z,108.50
2022-12-03T07:09:54.208Z,121.00
2022-12-03T07:12:22.258Z,105.80
2022-12-03T07:14:50.286Z,123.60
2022-12-03T07:17:18.291Z,111.20
2022-12-03T07:19:46.280Z,185.80
2022-12-03T07:22:14.162Z,97.60
2022-12-03T07:24:42.877Z,99.40
2022-12-03T07:27:10.946Z,121.70
2022-12-03T07:29:39.048Z,141.90
2022-12-03T07:32:07.054Z,112.20
2022-12-03T07:34:35.006Z,108.00
2022-12-03T07:37:03.392Z,95.00
2022-12-03T07:39:31.437Z,102.10
2022-12-03T07:41:59.359Z,97.70
2022-12-03T07:44:28.276Z,90.90
2022-12-03T07:46:56.346Z,99.10
2022-12-03T07:49:24.386Z,142.20
2022-12-03T07:51:56.366Z,106.00
2022-12-03T07:54:24.787Z,101.90
2022-12-03T07:56:57.925Z,92.80
2022-12-03T07:59:29.673Z,95.70
2022-12-03T08:01:57.839Z,92.80
2022-12-03T08:04:25.884Z,87.70
2022-12-03T08:06:53.909Z,80.50
2022-12-03T08:09:22.082Z,82.90
2022-12-03T08:11:50.478Z,75.70
2022-12-03T08:14:20.899Z,72.10
2022-12-03T08:16:48.942Z,81.40
2022-12-03T08:19:18.291Z,79.30
2022-12-03T08:21:46.351Z,79.60
2022-12-03T08:24:20.045Z,79.70
2022-12-03T08:26:49.731Z,83.50
2022-12-03T08:29:19.512Z,70.80
2022-12-03T08:31:52.352Z,68.70
2022-12-03T08:34:22.880Z,71.80
2022-12-03T08:37:09.267Z,70.20
2022-12-03T08:39:45.264Z,69.70
2022-12-03T08:42:44.890Z,75.90
2022-12-03T08:45:22.041Z,103.60
2022-12-03T08:47:49.951Z,75.30
2022-12-03T08:50:33.812Z,85.80
2022-12-03T08:53:14.030Z,69.20
2022-12-03T08:55:57.630Z,62.20
2022-12-03T08:58:28.863Z,63.40
2022-12-03T09:01:14.681Z,71.10
2022-12-03T09:04:38.458Z,67.30
2022-12-03T09:07:06.489Z,60.30
2022-12-03T09:09:35.067Z,70.80
2022-12-03T09:12:04.719Z,64.70
2022-12-03T09:14:32.760Z,68.70
2022-12-03T09:17:00.823Z,80.10
2022-12-03T09:19:31.259Z,75.80
2022-12-03T09:21:59.224Z,105.60
2022-12-03T09:24:27.051Z,85.70
2022-12-03T09:26:54.985Z,81.50
2022-12-03T09:29:23.640Z,111.10
2022-12-03T09:31:51.769Z,84.40
2022-12-03T09:34:19.758Z,80.50
2022-12-03T09:36:47.753Z,76.70
2022-12-03T09:39:15.885Z,75.30
2022-12-03T09:41:44.320Z,84.80
2022-12-03T09:44:17.633Z,74.50
2022-12-03T09:46:47.674Z,79.40
2022-12-03T09:49:18.115Z,84.70
2022-12-03T09:51:46.619Z,80.80
2022-12-03T09:54:24.026Z,87.90
2022-12-03T09:56:54.113Z,97.50
2022-12-03T09:59:23.730Z,85.30
2022-12-03T10:01:53.967Z,89.20
2022-12-03T10:04:22.861Z,121.00
2022-12-03T10:06:51.630Z,79.30
2022-12-03T10:09:25.807Z,94.90
2022-12-03T10:11:56.145Z,81.70
2022-12-03T10:14:24.430Z,81.70
2022-12-03T10:16:52.530Z,90.80
2022-12-03T10:19:30.203Z,89.30
2022-12-03T10:21:59.028Z,85.40
2022-12-03T10:24:27.296Z,80.20
2022-12-03T10:26:58.861Z,72.70
2022-12-03T10:29:34.338Z,66.70
2022-12-03T10:32:08.832Z,57.00
2022-12-03T10:34:42.103Z,56.20
2022-12-03T10:37:21.565Z,56.20
2022-12-03T10:40:01.724Z,58.60
2022-12-03T10:42:33.212Z,63.50
2022-12-03T10:45:07.339Z,55.40
2022-12-03T10:47:35.537Z,51.30
2022-12-03T10:50:07.148Z,49.30
2022-12-03T10:52:35.180Z,45.10
2022-12-03T10:55:03.198Z,41.80
2022-12-03T10:57:31.123Z,42.50
2022-12-03T10:59:59.021Z,42.80
2022-12-03T11:02:27.169Z,44.10
2022-12-03T11:04:55.793Z,42.60
2022-12-03T11:07:26.351Z,40.10
2022-12-03T11:09:58.937Z,44.00
2022-12-03T11:12:29.248Z,42.10
2022-12-03T11:14:58.662Z,41.30
2022-12-03T11:17:39.829Z,39.70
2022-12-03T11:20:24.936Z,38.60
2022-12-03T11:22:56.713Z,39.60
2022-12-03T11:25:24.627Z,39.10
2022-12-03T11:28:13.913Z,37.80
2022-12-03T11:31:04.341Z,39.80
2022-12-03T11:33:37.648Z,34.20
2022-12-03T11:36:05.684Z,37.90
2022-12-03T11:38:52.295Z,35.40
2022-12-03T11:41:31.390Z,32.50
2022-12-03T11:44:20.163Z,38.50
2022-12-03T11:46:48.303Z,37.60
2022-12-03T11:49:35.884Z,41.40
2022-12-03T11:52:20.264Z,42.70
2022-12-03T11:54:56.271Z,39.00
2022-12-03T11:57:28.743Z,43.30
2022-12-03T12:00:07.236Z,39.40
2022-12-03T12:02:39.939Z,42.40
2022-12-03T12:05:18.286Z,41.50
2022-12-03T12:07:48.343Z,39.20
2022-12-03T12:10:41.349Z,40.40
2022-12-03T12:13:31.269Z,39.30
2022-12-03T12:16:05.308Z,39.20
2022-12-03T12:18:41.004Z,42.10
2022-12-03T12:21:48.266Z,37.90
2022-12-03T12:24:40.882Z,38.90
2022-12-03T12:27:17.552Z,37.30
2022-12-03T12:32:17.863Z,41.30
2022-12-03T12:34:49.279Z,38.20
2022-12-03T12:37:23.596Z,41.40
2022-12-03T12:39:56.580Z,41.70
2022-12-03T12:42:35.294Z,39.40
2022-12-03T12:45:18.879Z,43.60
2022-12-03T12:47:50.229Z,43.30
2022-12-03T12:50:19.896Z,42.30
2022-12-03T12:53:01.866Z,35.50
2022-12-03T12:55:29.894Z,39.90
2022-12-03T12:58:06.071Z,35.80
2022-12-03T13:00:34.341Z,45.50
2022-12-03T13:03:04.874Z,44.20
2022-12-03T13:05:45.944Z,42.30
2022-12-03T13:08:26.750Z,40.20
2022-12-03T13:10:56.807Z,40.70
2022-12-03T13:13:40.154Z,38.50
2022-12-03T13:16:20.535Z,38.10
2022-12-03T13:18:59.302Z,41.10
2022-12-03T13:21:39.574Z,37.40
2022-12-03T13:24:44.411Z,33.30
2022-12-03T13:27:18.556Z,41.50
2022-12-03T13:29:50.999Z,43.00
2022-12-03T13:32:22.351Z,38.20
2022-12-03T13:34:55.414Z,36.80
2022-12-03T13:37:27.032Z,43.40
2022-12-03T13:39:57.503Z,42.30
2022-12-03T13:42:49.034Z,40.80
2022-12-03T13:45:28.956Z,40.60
2022-12-03T13:48:00.497Z,43.20
2022-12-03T13:50:44.653Z,39.00
2022-12-03T13:53:26.882Z,39.90
2022-12-03T13:56:06.253Z,38.10
2022-12-03T13:58:34.297Z,40.80
2022-12-03T14:01:02.390Z,46.60
2022-12-03T14:03:30.440Z,48.90
2022-12-03T14:05:58.838Z,51.30
2022-12-03T14:08:28.942Z,51.70
2022-12-03T14:11:00.321Z,49.70
2022-12-03T14:13:28.712Z,56.30
2022-12-03T14:15:56.726Z,49.50
2022-12-03T14:18:24.682Z,49.80
2022-12-03T14:20:52.533Z,51.60
2022-12-03T14:23:20.472Z,44.10
2022-12-03T14:25:48.358Z,51.00
2022-12-03T14:28:16.294Z,51.40
2022-12-03T14:30:44.247Z,48.20
2022-12-03T14:33:12.304Z,52.40
2022-12-03T14:35:40.196Z,54.20
2022-12-03T14:38:08.276Z,51.20
2022-12-03T14:40:36.229Z,52.20
2022-12-03T14:43:04.196Z,59.40
2022-12-03T14:45:32.201Z,53.90
2022-12-03T14:48:00.814Z,54.00
2022-12-03T14:50:28.733Z,58.10
2022-12-03T14:52:56.696Z,58.20
2022-12-03T14:55:24.740Z,60.90
2022-12-03T14:57:52.930Z,67.10
2022-12-03T15:00:23.086Z,64.10
2022-12-03T15:02:51.154Z,63.60
2022-12-03T15:05:27.932Z,61.90
2022-12-03T15:07:56.720Z,58.10
2022-12-03T15:10:24.721Z,60.30
2022-12-03T15:12:52.678Z,63.00
2022-12-03T15:15:20.612Z,70.50
2022-12-03T15:17:48.936Z,63.10
2022-12-03T15:20:19.487Z,55.80
2022-12-03T15:22:47.452Z,60.60
2022-12-03T15:25:15.484Z,66.10
2022-12-03T15:27:43.606Z,66.40
2022-12-03T15:30:11.592Z,62.70
2022-12-03T15:32:40.861Z,55.50
2022-12-03T15:35:09.110Z,59.60
2022-12-03T15:37:37.008Z,82.50
2022-12-03T15:40:05.857Z,69.70
2022-12-03T15:42:33.766Z,59.30
2022-12-03T15:45:01.878Z,71.20
2022-12-03T15:47:29.781Z,64.50
2022-12-03T15:49:57.648Z,91.00
2022-12-03T15:52:25.533Z,53.80
2022-12-03T15:54:54.468Z,65.30
2022-12-03T15:57:24.053Z,60.10
2022-12-03T18:49:55.786Z,64.00
2022-12-03T20:52:04.462Z,212.60
2022-12-03T22:54:13.334Z,40.60
